sensor_id;sensor_type;location;lat;lon;timestamp;temperature;humidity
21823;DHT22;11074;48.596;9.238;2023-05-10T00:00:34;15.50;99.90
21823;DHT22;11074;48.596;9.238;2023-05-10T00:02:59;15.50;99.90
21823;DHT22;11074;48.596;9.238;2023-05-10T00:05:25;15.50;99.90
21823;DHT22;11074;48.596;9.238;2023-05-10T00:07:51;15.60;99.90
21823;DHT22;11074;48.596;9.238;2023-05-10T00:10:16;15.60;99.90
21823;DHT22;11074;48.596;9.238;2023-05-10T00:12:42;15.50;99.90
21823;DHT22;11074;48.596;9.238;2023-05-10T00:15:08;15.50;99.90
21823;DHT22;11074;48.596;9.238;2023-05-10T00:17:34;15.50;99.90
21823;DHT22;11074;48.596;9.238;2023-05-10T00:20:00;15.40;99.90
21823;DHT22;11074;48.596;9.238;2023-05-10T00:22:26;15.40;99.90
21823;DHT22;11074;48.596;9.238;2023-05-10T00:24:51;15.40;99.90
21823;DHT22;11074;48.596;9.238;2023-05-10T00:27:17;15.40;99.90
21823;DHT22;11074;48.596;9.238;2023-05-10T00:29:43;15.40;99.90
21823;DHT22;11074;48.596;9.238;2023-05-10T00:32:08;15.40;99.90
21823;DHT22;11074;48.596;9.238;2023-05-10T00:34:34;15.40;99.90
21823;DHT22;11074;48.596;9.238;2023-05-10T00:37:00;15.40;99.90
21823;DHT22;11074;48.596;9.238;2023-05-10T00:39:25;15.40;99.90
21823;DHT22;11074;48.596;9.238;2023-05-10T00:41:52;15.40;99.90
21823;DHT22;11074;48.596;9.238;2023-05-10T00:44:17;15.40;99.90
21823;DHT22;11074;48.596;9.238;2023-05-10T00:46:44;15.40;99.90
21823;DHT22;11074;48.596;9.238;2023-05-10T00:49:11;15.40;99.90
21823;DHT22;11074;48.596;9.238;2023-05-10T00:51:36;15.30;99.90
21823;DHT22;11074;48.596;9.238;2023-05-10T00:54:02;15.30;99.90
21823;DHT22;11074;48.596;9.238;2023-05-10T00:56:28;15.30;99.90
21823;DHT22;11074;48.596;9.238;2023-05-10T00:58:55;15.30;99.90
21823;DHT22;11074;48.596;9.238;2023-05-10T01:01:21;15.30;99.90
21823;DHT22;11074;48.596;9.238;2023-05-10T01:03:48;15.30;99.90
21823;DHT22;11074;48.596;9.238;2023-05-10T01:06:13;15.30;99.90
21823;DHT22;11074;48.596;9.238;2023-05-10T01:08:39;15.30;99.90
21823;DHT22;11074;48.596;9.238;2023-05-10T01:11:06;15.30;99.90
21823;DHT22;11074;48.596;9.238;2023-05-10T01:13:36;15.30;99.90
21823;DHT22;11074;48.596;9.238;2023-05-10T01:16:05;15.30;99.90
21823;DHT22;11074;48.596;9.238;2023-05-10T01:18:37;15.30;99.90
21823;DHT22;11074;48.596;9.238;2023-05-10T01:21:21;15.30;99.90
21823;DHT22;11074;48.596;9.238;2023-05-10T01:32:57;15.20;99.90
21823;DHT22;11074;48.596;9.238;2023-05-10T01:38:43;15.20;99.90
21823;DHT22;11074;48.596;9.238;2023-05-10T01:41:39;15.20;99.90
21823;DHT22;11074;48.596;9.238;2023-05-10T01:49:47;15.20;99.90
21823;DHT22;11074;48.596;9.238;2023-05-10T01:52:18;15.20;99.90
21823;DHT22;11074;48.596;9.238;2023-05-10T01:55:01;15.20;99.90
21823;DHT22;11074;48.596;9.238;2023-05-10T01:57:37;15.20;99.90
21823;DHT22;11074;48.596;9.238;2023-05-10T02:00:07;15.20;99.90
21823;DHT22;11074;48.596;9.238;2023-05-10T02:02:38;15.20;99.90
21823;DHT22;11074;48.596;9.238;2023-05-10T02:05:07;15.20;99.90
21823;DHT22;11074;48.596;9.238;2023-05-10T02:07:36;15.20;99.90
21823;DHT22;11074;48.596;9.238;2023-05-10T02:10:04;15.20;99.90
21823;DHT22;11074;48.596;9.238;2023-05-10T02:12:35;15.20;99.90
21823;DHT22;11074;48.596;9.238;2023-05-10T02:15:05;15.20;99.90
21823;DHT22;11074;48.596;9.238;2023-05-10T02:17:32;15.20;99.90
21823;DHT22;11074;48.596;9.238;2023-05-10T02:20:01;15.10;99.90
21823;DHT22;11074;48.596;9.238;2023-05-10T02:22:29;15.10;99.90
21823;DHT22;11074;48.596;9.238;2023-05-10T02:24:58;15.10;99.90
21823;DHT22;11074;48.596;9.238;2023-05-10T02:27:25;15.10;99.90
21823;DHT22;11074;48.596;9.238;2023-05-10T02:29:53;15.10;99.90
21823;DHT22;11074;48.596;9.238;2023-05-10T02:32:21;15.10;99.90
21823;DHT22;11074;48.596;9.238;2023-05-10T02:34:50;15.00;99.90
21823;DHT22;11074;48.596;9.238;2023-05-10T02:37:19;15.00;99.90
21823;DHT22;11074;48.596;9.238;2023-05-10T02:39:48;15.00;99.90
21823;DHT22;11074;48.596;9.238;2023-05-10T02:42:19;15.00;99.90
21823;DHT22;11074;48.596;9.238;2023-05-10T02:44:52;14.90;99.90
21823;DHT22;11074;48.596;9.238;2023-05-10T02:47:21;14.90;99.90
21823;DHT22;11074;48.596;9.238;2023-05-10T02:49:47;14.90;99.90
21823;DHT22;11074;48.596;9.238;2023-05-10T02:52:16;14.90;99.90
21823;DHT22;11074;48.596;9.238;2023-05-10T02:54:50;14.80;99.90
21823;DHT22;11074;48.596;9.238;2023-05-10T02:57:32;14.80;99.90
21823;DHT22;11074;48.596;9.238;2023-05-10T03:00:00;14.70;99.90
21823;DHT22;11074;48.596;9.238;2023-05-10T03:02:28;14.70;99.90
21823;DHT22;11074;48.596;9.238;2023-05-10T03:04:55;14.60;99.90
21823;DHT22;11074;48.596;9.238;2023-05-10T03:07:21;14.70;99.90
21823;DHT22;11074;48.596;9.238;2023-05-10T03:09:48;14.70;99.90
21823;DHT22;11074;48.596;9.238;2023-05-10T03:15:59;14.60;99.90
21823;DHT22;11074;48.596;9.238;2023-05-10T03:19:01;14.50;99.90
21823;DHT22;11074;48.596;9.238;2023-05-10T03:21:41;14.50;99.90
21823;DHT22;11074;48.596;9.238;2023-05-10T03:24:13;14.50;99.90
21823;DHT22;11074;48.596;9.238;2023-05-10T03:26:43;14.50;99.90
21823;DHT22;11074;48.596;9.238;2023-05-10T03:29:11;14.50;99.90
21823;DHT22;11074;48.596;9.238;2023-05-10T03:31:40;14.50;99.90
21823;DHT22;11074;48.596;9.238;2023-05-10T03:34:06;14.40;99.90
21823;DHT22;11074;48.596;9.238;2023-05-10T03:36:32;14.40;99.90
21823;DHT22;11074;48.596;9.238;2023-05-10T03:38:58;14.40;99.90
21823;DHT22;11074;48.596;9.238;2023-05-10T03:41:24;14.40;99.90
21823;DHT22;11074;48.596;9.238;2023-05-10T03:43:50;14.40;99.90
21823;DHT22;11074;48.596;9.238;2023-05-10T03:46:16;14.30;99.90
21823;DHT22;11074;48.596;9.238;2023-05-10T03:48:42;14.40;99.90
21823;DHT22;11074;48.596;9.238;2023-05-10T03:51:08;14.40;99.90
21823;DHT22;11074;48.596;9.238;2023-05-10T03:53:33;14.40;99.90
21823;DHT22;11074;48.596;9.238;2023-05-10T03:55:59;14.30;99.90
21823;DHT22;11074;48.596;9.238;2023-05-10T03:58:25;14.30;99.90
21823;DHT22;11074;48.596;9.238;2023-05-10T04:00:51;14.30;99.90
21823;DHT22;11074;48.596;9.238;2023-05-10T04:03:17;14.30;99.90
21823;DHT22;11074;48.596;9.238;2023-05-10T04:05:58;14.30;99.90
21823;DHT22;11074;48.596;9.238;2023-05-10T04:08:25;14.30;99.90
21823;DHT22;11074;48.596;9.238;2023-05-10T04:10:53;14.30;99.90
21823;DHT22;11074;48.596;9.238;2023-05-10T04:13:19;14.40;99.90
21823;DHT22;11074;48.596;9.238;2023-05-10T04:15:45;14.30;99.90
21823;DHT22;11074;48.596;9.238;2023-05-10T04:18:10;14.30;99.90
21823;DHT22;11074;48.596;9.238;2023-05-10T04:20:36;14.30;99.90
21823;DHT22;11074;48.596;9.238;2023-05-10T04:23:02;14.30;99.90
21823;DHT22;11074;48.596;9.238;2023-05-10T04:25:28;14.30;99.90
21823;DHT22;11074;48.596;9.238;2023-05-10T04:27:53;14.30;99.90
21823;DHT22;11074;48.596;9.238;2023-05-10T04:30:19;14.30;99.90
21823;DHT22;11074;48.596;9.238;2023-05-10T04:32:45;14.30;99.90
21823;DHT22;11074;48.596;9.238;2023-05-10T04:35:10;14.40;99.90
21823;DHT22;11074;48.596;9.238;2023-05-10T04:37:36;14.40;99.90
21823;DHT22;11074;48.596;9.238;2023-05-10T04:40:02;14.40;99.90
21823;DHT22;11074;48.596;9.238;2023-05-10T04:42:29;14.40;99.90
21823;DHT22;11074;48.596;9.238;2023-05-10T04:44:54;14.40;99.90
21823;DHT22;11074;48.596;9.238;2023-05-10T04:47:20;14.40;99.90
21823;DHT22;11074;48.596;9.238;2023-05-10T04:49:46;14.50;99.90
21823;DHT22;11074;48.596;9.238;2023-05-10T04:52:12;14.50;99.90
21823;DHT22;11074;48.596;9.238;2023-05-10T04:54:37;14.50;99.90
21823;DHT22;11074;48.596;9.238;2023-05-10T04:57:03;14.50;99.90
21823;DHT22;11074;48.596;9.238;2023-05-10T04:59:29;14.50;99.90
21823;DHT22;11074;48.596;9.238;2023-05-10T05:01:54;14.40;99.90
21823;DHT22;11074;48.596;9.238;2023-05-10T05:04:20;14.40;99.90
21823;DHT22;11074;48.596;9.238;2023-05-10T05:06:46;14.40;99.90
21823;DHT22;11074;48.596;9.238;2023-05-10T05:09:11;14.50;99.90
21823;DHT22;11074;48.596;9.238;2023-05-10T05:11:37;14.50;99.90
21823;DHT22;11074;48.596;9.238;2023-05-10T05:14:03;14.50;99.90
21823;DHT22;11074;48.596;9.238;2023-05-10T05:16:30;14.50;99.90
21823;DHT22;11074;48.596;9.238;2023-05-10T05:18:56;14.50;99.90
21823;DHT22;11074;48.596;9.238;2023-05-10T05:21:22;14.60;99.90
21823;DHT22;11074;48.596;9.238;2023-05-10T05:23:49;14.60;99.90
21823;DHT22;11074;48.596;9.238;2023-05-10T05:26:14;14.60;99.90
21823;DHT22;11074;48.596;9.238;2023-05-10T05:28:41;14.60;99.90
21823;DHT22;11074;48.596;9.238;2023-05-10T05:31:07;14.70;99.90
21823;DHT22;11074;48.596;9.238;2023-05-10T05:33:33;14.70;99.90
21823;DHT22;11074;48.596;9.238;2023-05-10T05:36:03;14.70;99.90
21823;DHT22;11074;48.596;9.238;2023-05-10T05:38:30;14.70;99.90
21823;DHT22;11074;48.596;9.238;2023-05-10T05:40:56;14.70;99.90
21823;DHT22;11074;48.596;9.238;2023-05-10T05:43:22;14.80;99.90
21823;DHT22;11074;48.596;9.238;2023-05-10T05:45:48;14.80;99.90
21823;DHT22;11074;48.596;9.238;2023-05-10T05:48:14;14.80;99.90
21823;DHT22;11074;48.596;9.238;2023-05-10T05:50:39;14.90;99.90
21823;DHT22;11074;48.596;9.238;2023-05-10T05:53:05;14.80;99.90
21823;DHT22;11074;48.596;9.238;2023-05-10T05:55:31;14.90;99.90
21823;DHT22;11074;48.596;9.238;2023-05-10T05:57:57;14.80;99.90
21823;DHT22;11074;48.596;9.238;2023-05-10T06:00:23;14.80;99.90
21823;DHT22;11074;48.596;9.238;2023-05-10T06:02:49;14.80;99.90
21823;DHT22;11074;48.596;9.238;2023-05-10T06:05:15;14.80;99.90
21823;DHT22;11074;48.596;9.238;2023-05-10T06:07:41;14.80;99.90
21823;DHT22;11074;48.596;9.238;2023-05-10T06:10:09;14.80;99.90
21823;DHT22;11074;48.596;9.238;2023-05-10T06:12:35;14.80;99.90
21823;DHT22;11074;48.596;9.238;2023-05-10T06:15:02;14.80;99.90
21823;DHT22;11074;48.596;9.238;2023-05-10T06:17:28;14.80;99.90
21823;DHT22;11074;48.596;9.238;2023-05-10T06:19:54;14.80;99.90
21823;DHT22;11074;48.596;9.238;2023-05-10T06:22:20;14.80;99.90
21823;DHT22;11074;48.596;9.238;2023-05-10T06:24:48;14.90;99.90
21823;DHT22;11074;48.596;9.238;2023-05-10T06:27:14;14.90;99.90
21823;DHT22;11074;48.596;9.238;2023-05-10T06:29:39;14.90;99.90
21823;DHT22;11074;48.596;9.238;2023-05-10T06:32:06;14.90;99.90
21823;DHT22;11074;48.596;9.238;2023-05-10T06:34:31;14.90;99.90
21823;DHT22;11074;48.596;9.238;2023-05-10T06:36:57;14.90;99.90
21823;DHT22;11074;48.596;9.238;2023-05-10T06:39:23;14.90;99.90
21823;DHT22;11074;48.596;9.238;2023-05-10T06:41:49;15.00;99.90
21823;DHT22;11074;48.596;9.238;2023-05-10T06:44:14;14.90;99.90
21823;DHT22;11074;48.596;9.238;2023-05-10T06:46:40;14.90;99.90
21823;DHT22;11074;48.596;9.238;2023-05-10T06:49:07;14.90;99.90
21823;DHT22;11074;48.596;9.238;2023-05-10T06:51:32;15.00;99.90
21823;DHT22;11074;48.596;9.238;2023-05-10T06:53:58;14.90;99.90
21823;DHT22;11074;48.596;9.238;2023-05-10T06:56:23;15.00;99.90
21823;DHT22;11074;48.596;9.238;2023-05-10T06:58:49;15.10;99.90
21823;DHT22;11074;48.596;9.238;2023-05-10T07:01:15;15.10;99.90
21823;DHT22;11074;48.596;9.238;2023-05-10T07:03:40;15.20;99.90
21823;DHT22;11074;48.596;9.238;2023-05-10T07:06:06;15.30;99.90
21823;DHT22;11074;48.596;9.238;2023-05-10T07:08:33;15.40;99.90
21823;DHT22;11074;48.596;9.238;2023-05-10T07:11:03;15.40;99.90
21823;DHT22;11074;48.596;9.238;2023-05-10T07:13:31;15.50;99.90
21823;DHT22;11074;48.596;9.238;2023-05-10T07:15:58;15.50;99.90
21823;DHT22;11074;48.596;9.238;2023-05-10T07:18:24;15.60;99.90
21823;DHT22;11074;48.596;9.238;2023-05-10T07:20:50;15.60;99.90
21823;DHT22;11074;48.596;9.238;2023-05-10T07:23:16;15.60;99.90
21823;DHT22;11074;48.596;9.238;2023-05-10T07:25:48;15.70;99.90
21823;DHT22;11074;48.596;9.238;2023-05-10T07:28:16;15.70;99.90
21823;DHT22;11074;48.596;9.238;2023-05-10T07:30:42;15.70;99.90
21823;DHT22;11074;48.596;9.238;2023-05-10T07:33:09;15.70;99.90
21823;DHT22;11074;48.596;9.238;2023-05-10T07:35:36;15.70;99.90
21823;DHT22;11074;48.596;9.238;2023-05-10T07:38:02;15.60;99.90
21823;DHT22;11074;48.596;9.238;2023-05-10T07:40:29;15.70;99.90
21823;DHT22;11074;48.596;9.238;2023-05-10T07:42:55;15.70;99.90
21823;DHT22;11074;48.596;9.238;2023-05-10T07:45:22;15.60;99.90
21823;DHT22;11074;48.596;9.238;2023-05-10T07:47:48;15.60;99.90
21823;DHT22;11074;48.596;9.238;2023-05-10T07:50:14;15.60;99.90
21823;DHT22;11074;48.596;9.238;2023-05-10T07:52:40;15.60;99.90
21823;DHT22;11074;48.596;9.238;2023-05-10T07:55:06;15.60;99.90
21823;DHT22;11074;48.596;9.238;2023-05-10T07:57:33;15.60;99.90
21823;DHT22;11074;48.596;9.238;2023-05-10T07:59:59;15.60;99.90
21823;DHT22;11074;48.596;9.238;2023-05-10T08:02:25;15.50;99.90
21823;DHT22;11074;48.596;9.238;2023-05-10T08:04:51;15.50;99.90
21823;DHT22;11074;48.596;9.238;2023-05-10T08:07:18;15.50;99.90
21823;DHT22;11074;48.596;9.238;2023-05-10T08:09:43;15.50;99.90
21823;DHT22;11074;48.596;9.238;2023-05-10T08:12:09;15.60;99.90
21823;DHT22;11074;48.596;9.238;2023-05-10T08:14:35;15.60;99.90
21823;DHT22;11074;48.596;9.238;2023-05-10T08:17:04;15.60;99.90
21823;DHT22;11074;48.596;9.238;2023-05-10T08:19:30;15.70;99.90
21823;DHT22;11074;48.596;9.238;2023-05-10T08:21:55;15.60;99.90
21823;DHT22;11074;48.596;9.238;2023-05-10T08:24:22;15.70;99.90
21823;DHT22;11074;48.596;9.238;2023-05-10T08:26:48;15.70;99.90
21823;DHT22;11074;48.596;9.238;2023-05-10T08:29:14;15.70;99.90
21823;DHT22;11074;48.596;9.238;2023-05-10T08:31:40;15.80;99.90
21823;DHT22;11074;48.596;9.238;2023-05-10T08:34:06;15.90;99.90
21823;DHT22;11074;48.596;9.238;2023-05-10T08:36:31;16.00;99.90
21823;DHT22;11074;48.596;9.238;2023-05-10T08:38:58;16.10;99.90
21823;DHT22;11074;48.596;9.238;2023-05-10T08:41:24;16.20;99.90
21823;DHT22;11074;48.596;9.238;2023-05-10T08:43:52;16.20;99.90
21823;DHT22;11074;48.596;9.238;2023-05-10T08:46:20;16.30;99.90
21823;DHT22;11074;48.596;9.238;2023-05-10T08:48:49;16.30;99.90
21823;DHT22;11074;48.596;9.238;2023-05-10T08:51:23;16.40;99.90
21823;DHT22;11074;48.596;9.238;2023-05-10T08:53:53;16.40;99.90
21823;DHT22;11074;48.596;9.238;2023-05-10T08:56:19;16.40;99.90
21823;DHT22;11074;48.596;9.238;2023-05-10T08:58:46;16.40;99.90
21823;DHT22;11074;48.596;9.238;2023-05-10T09:01:13;16.40;99.90
21823;DHT22;11074;48.596;9.238;2023-05-10T09:03:41;16.30;99.90
21823;DHT22;11074;48.596;9.238;2023-05-10T09:06:08;16.40;99.90
21823;DHT22;11074;48.596;9.238;2023-05-10T09:08:34;16.40;99.90
21823;DHT22;11074;48.596;9.238;2023-05-10T09:11:02;16.50;99.90
21823;DHT22;11074;48.596;9.238;2023-05-10T09:13:28;16.60;99.90
21823;DHT22;11074;48.596;9.238;2023-05-10T09:15:55;16.60;99.90
21823;DHT22;11074;48.596;9.238;2023-05-10T09:18:20;16.60;99.90
21823;DHT22;11074;48.596;9.238;2023-05-10T09:20:46;16.70;99.90
21823;DHT22;11074;48.596;9.238;2023-05-10T09:23:12;16.70;99.90
21823;DHT22;11074;48.596;9.238;2023-05-10T09:25:38;16.70;99.90
21823;DHT22;11074;48.596;9.238;2023-05-10T09:28:07;16.60;99.90
21823;DHT22;11074;48.596;9.238;2023-05-10T09:30:34;16.70;99.90
21823;DHT22;11074;48.596;9.238;2023-05-10T09:33:00;16.70;99.90
21823;DHT22;11074;48.596;9.238;2023-05-10T09:35:28;16.80;99.90
21823;DHT22;11074;48.596;9.238;2023-05-10T09:37:58;16.90;99.90
21823;DHT22;11074;48.596;9.238;2023-05-10T09:40:31;16.80;99.90
21823;DHT22;11074;48.596;9.238;2023-05-10T09:43:03;16.90;99.90
21823;DHT22;11074;48.596;9.238;2023-05-10T09:45:34;16.90;99.90
21823;DHT22;11074;48.596;9.238;2023-05-10T09:48:01;16.80;99.90
21823;DHT22;11074;48.596;9.238;2023-05-10T09:50:29;16.80;99.90
21823;DHT22;11074;48.596;9.238;2023-05-10T09:52:57;16.80;99.90
21823;DHT22;11074;48.596;9.238;2023-05-10T09:55:37;16.80;99.90
21823;DHT22;11074;48.596;9.238;2023-05-10T09:58:07;16.90;99.90
21823;DHT22;11074;48.596;9.238;2023-05-10T10:00:37;16.80;99.90
21823;DHT22;11074;48.596;9.238;2023-05-10T10:03:15;16.80;99.90
21823;DHT22;11074;48.596;9.238;2023-05-10T10:05:43;16.80;99.90
21823;DHT22;11074;48.596;9.238;2023-05-10T10:08:10;16.80;99.90
21823;DHT22;11074;48.596;9.238;2023-05-10T10:10:37;16.90;99.90
21823;DHT22;11074;48.596;9.238;2023-05-10T10:13:05;17.00;99.90
21823;DHT22;11074;48.596;9.238;2023-05-10T10:15:33;17.10;99.90
21823;DHT22;11074;48.596;9.238;2023-05-10T10:17:59;17.30;99.90
21823;DHT22;11074;48.596;9.238;2023-05-10T10:20:26;17.40;99.90
21823;DHT22;11074;48.596;9.238;2023-05-10T10:22:53;17.70;99.90
21823;DHT22;11074;48.596;9.238;2023-05-10T10:25:20;17.70;99.90
21823;DHT22;11074;48.596;9.238;2023-05-10T10:36:21;17.30;99.90
21823;DHT22;11074;48.596;9.238;2023-05-10T10:41:37;17.00;99.90
21823;DHT22;11074;48.596;9.238;2023-05-10T10:52:23;16.50;99.90
21823;DHT22;11074;48.596;9.238;2023-05-10T10:54:58;16.30;99.90
21823;DHT22;11074;48.596;9.238;2023-05-10T11:00:34;16.20;99.90
21823;DHT22;11074;48.596;9.238;2023-05-10T11:05:47;16.10;99.90
21823;DHT22;11074;48.596;9.238;2023-05-10T11:13:32;15.90;99.90
21823;DHT22;11074;48.596;9.238;2023-05-10T11:21:28;15.40;99.90
21823;DHT22;11074;48.596;9.238;2023-05-10T11:23:57;15.00;99.90
21823;DHT22;11074;48.596;9.238;2023-05-10T11:26:32;14.70;99.90
21823;DHT22;11074;48.596;9.238;2023-05-10T11:29:00;14.40;99.90
21823;DHT22;11074;48.596;9.238;2023-05-10T11:31:28;14.20;99.90
21823;DHT22;11074;48.596;9.238;2023-05-10T11:33:56;14.10;99.90
21823;DHT22;11074;48.596;9.238;2023-05-10T11:36:28;14.00;99.90
21823;DHT22;11074;48.596;9.238;2023-05-10T11:38:57;14.10;99.90
21823;DHT22;11074;48.596;9.238;2023-05-10T11:41:24;14.10;99.90
21823;DHT22;11074;48.596;9.238;2023-05-10T11:43:52;14.30;99.90
21823;DHT22;11074;48.596;9.238;2023-05-10T11:46:21;14.30;99.90
21823;DHT22;11074;48.596;9.238;2023-05-10T11:48:51;14.40;99.90
21823;DHT22;11074;48.596;9.238;2023-05-10T11:51:22;14.50;99.90
21823;DHT22;11074;48.596;9.238;2023-05-10T11:53:50;14.50;99.90
21823;DHT22;11074;48.596;9.238;2023-05-10T11:56:17;14.60;99.90
21823;DHT22;11074;48.596;9.238;2023-05-10T11:58:43;14.60;99.90
21823;DHT22;11074;48.596;9.238;2023-05-10T12:01:09;14.70;99.90
21823;DHT22;11074;48.596;9.238;2023-05-10T12:03:36;14.80;99.90
21823;DHT22;11074;48.596;9.238;2023-05-10T12:06:03;14.80;99.90
21823;DHT22;11074;48.596;9.238;2023-05-10T12:08:30;14.90;99.90
21823;DHT22;11074;48.596;9.238;2023-05-10T12:11:07;15.00;99.90
21823;DHT22;11074;48.596;9.238;2023-05-10T12:13:41;15.00;99.90
21823;DHT22;11074;48.596;9.238;2023-05-10T12:16:18;15.20;99.90
21823;DHT22;11074;48.596;9.238;2023-05-10T12:18:49;15.20;99.90
21823;DHT22;11074;48.596;9.238;2023-05-10T12:21:16;15.30;99.90
21823;DHT22;11074;48.596;9.238;2023-05-10T12:23:45;15.30;99.90
21823;DHT22;11074;48.596;9.238;2023-05-10T12:26:12;15.30;99.90
21823;DHT22;11074;48.596;9.238;2023-05-10T12:28:38;15.30;99.90
21823;DHT22;11074;48.596;9.238;2023-05-10T12:31:07;15.40;99.90
21823;DHT22;11074;48.596;9.238;2023-05-10T12:33:43;15.40;99.90
21823;DHT22;11074;48.596;9.238;2023-05-10T12:36:11;15.50;99.90
21823;DHT22;11074;48.596;9.238;2023-05-10T12:38:40;15.60;99.90
21823;DHT22;11074;48.596;9.238;2023-05-10T12:41:14;15.60;99.90
21823;DHT22;11074;48.596;9.238;2023-05-10T12:43:40;15.70;99.90
21823;DHT22;11074;48.596;9.238;2023-05-10T12:46:11;15.70;99.90
21823;DHT22;11074;48.596;9.238;2023-05-10T12:48:40;15.80;99.90
21823;DHT22;11074;48.596;9.238;2023-05-10T12:51:07;15.80;99.90
21823;DHT22;11074;48.596;9.238;2023-05-10T12:53:35;15.90;99.90
21823;DHT22;11074;48.596;9.238;2023-05-10T12:56:01;15.90;99.90
21823;DHT22;11074;48.596;9.238;2023-05-10T12:58:27;16.00;99.90
21823;DHT22;11074;48.596;9.238;2023-05-10T13:00:53;16.00;99.90
21823;DHT22;11074;48.596;9.238;2023-05-10T13:03:19;16.00;99.90
21823;DHT22;11074;48.596;9.238;2023-05-10T13:05:44;16.00;99.90
21823;DHT22;11074;48.596;9.238;2023-05-10T13:08:10;16.10;99.90
21823;DHT22;11074;48.596;9.238;2023-05-10T13:10:36;16.20;99.90
21823;DHT22;11074;48.596;9.238;2023-05-10T13:13:02;16.30;99.90
21823;DHT22;11074;48.596;9.238;2023-05-10T13:15:28;16.40;99.90
21823;DHT22;11074;48.596;9.238;2023-05-10T13:17:54;16.50;99.90
21823;DHT22;11074;48.596;9.238;2023-05-10T13:20:19;16.60;99.90
21823;DHT22;11074;48.596;9.238;2023-05-10T13:22:46;16.70;99.90
21823;DHT22;11074;48.596;9.238;2023-05-10T13:25:12;16.70;99.90
21823;DHT22;11074;48.596;9.238;2023-05-10T13:27:39;16.70;99.90
21823;DHT22;11074;48.596;9.238;2023-05-10T13:30:07;16.80;99.90
21823;DHT22;11074;48.596;9.238;2023-05-10T13:32:33;16.80;99.90
21823;DHT22;11074;48.596;9.238;2023-05-10T13:35:00;16.90;99.90
21823;DHT22;11074;48.596;9.238;2023-05-10T13:37:25;17.00;99.90
21823;DHT22;11074;48.596;9.238;2023-05-10T13:39:51;17.00;99.90
21823;DHT22;11074;48.596;9.238;2023-05-10T13:42:17;17.00;99.90
21823;DHT22;11074;48.596;9.238;2023-05-10T13:44:43;17.00;99.90
21823;DHT22;11074;48.596;9.238;2023-05-10T13:47:09;16.80;99.90
21823;DHT22;11074;48.596;9.238;2023-05-10T13:49:35;16.80;99.90
21823;DHT22;11074;48.596;9.238;2023-05-10T13:52:01;16.80;99.90
21823;DHT22;11074;48.596;9.238;2023-05-10T13:54:33;16.90;99.90
21823;DHT22;11074;48.596;9.238;2023-05-10T13:56:59;16.70;99.90
21823;DHT22;11074;48.596;9.238;2023-05-10T13:59:25;16.70;99.90
21823;DHT22;11074;48.596;9.238;2023-05-10T14:01:51;16.70;99.90
21823;DHT22;11074;48.596;9.238;2023-05-10T14:04:16;16.70;99.90
21823;DHT22;11074;48.596;9.238;2023-05-10T14:06:42;16.70;99.90
21823;DHT22;11074;48.596;9.238;2023-05-10T14:09:08;16.80;99.90
21823;DHT22;11074;48.596;9.238;2023-05-10T14:11:33;16.80;99.90
21823;DHT22;11074;48.596;9.238;2023-05-10T14:13:59;16.80;99.90
21823;DHT22;11074;48.596;9.238;2023-05-10T14:16:25;16.90;99.90
21823;DHT22;11074;48.596;9.238;2023-05-10T14:18:51;16.80;99.90
21823;DHT22;11074;48.596;9.238;2023-05-10T14:21:17;16.90;99.90
21823;DHT22;11074;48.596;9.238;2023-05-10T14:23:42;16.80;99.90
21823;DHT22;11074;48.596;9.238;2023-05-10T14:26:08;16.80;99.90
21823;DHT22;11074;48.596;9.238;2023-05-10T14:28:34;16.90;99.90
21823;DHT22;11074;48.596;9.238;2023-05-10T14:30:59;17.00;99.90
21823;DHT22;11074;48.596;9.238;2023-05-10T14:33:25;17.00;99.90
21823;DHT22;11074;48.596;9.238;2023-05-10T14:35:51;17.10;99.90
21823;DHT22;11074;48.596;9.238;2023-05-10T14:38:17;17.10;99.90
21823;DHT22;11074;48.596;9.238;2023-05-10T14:40:42;17.10;99.90
21823;DHT22;11074;48.596;9.238;2023-05-10T14:43:08;17.20;99.90
21823;DHT22;11074;48.596;9.238;2023-05-10T14:45:34;17.20;99.90
21823;DHT22;11074;48.596;9.238;2023-05-10T14:48:00;17.30;99.90
21823;DHT22;11074;48.596;9.238;2023-05-10T14:50:30;17.30;99.90
21823;DHT22;11074;48.596;9.238;2023-05-10T14:52:57;17.30;99.90
21823;DHT22;11074;48.596;9.238;2023-05-10T14:55:23;17.20;99.90
21823;DHT22;11074;48.596;9.238;2023-05-10T14:57:48;17.20;99.90
21823;DHT22;11074;48.596;9.238;2023-05-10T15:00:16;17.30;99.90
21823;DHT22;11074;48.596;9.238;2023-05-10T15:02:42;17.30;99.90
21823;DHT22;11074;48.596;9.238;2023-05-10T15:05:08;17.20;99.90
21823;DHT22;11074;48.596;9.238;2023-05-10T15:07:33;17.10;99.90
21823;DHT22;11074;48.596;9.238;2023-05-10T15:09:59;17.10;99.90
21823;DHT22;11074;48.596;9.238;2023-05-10T15:12:25;17.10;99.90
21823;DHT22;11074;48.596;9.238;2023-05-10T15:14:51;17.10;99.90
21823;DHT22;11074;48.596;9.238;2023-05-10T15:17:17;17.20;99.90
21823;DHT22;11074;48.596;9.238;2023-05-10T15:19:42;17.30;99.90
21823;DHT22;11074;48.596;9.238;2023-05-10T15:22:08;17.30;99.90
21823;DHT22;11074;48.596;9.238;2023-05-10T15:24:34;17.40;99.90
21823;DHT22;11074;48.596;9.238;2023-05-10T15:27:00;17.40;99.90
21823;DHT22;11074;48.596;9.238;2023-05-10T15:29:26;17.40;99.90
21823;DHT22;11074;48.596;9.238;2023-05-10T15:31:51;17.40;99.90
21823;DHT22;11074;48.596;9.238;2023-05-10T15:34:18;17.40;99.90
21823;DHT22;11074;48.596;9.238;2023-05-10T15:36:44;17.40;99.90
21823;DHT22;11074;48.596;9.238;2023-05-10T15:39:10;17.40;99.90
21823;DHT22;11074;48.596;9.238;2023-05-10T15:41:37;17.40;99.90
21823;DHT22;11074;48.596;9.238;2023-05-10T15:44:03;17.40;99.90
21823;DHT22;11074;48.596;9.238;2023-05-10T15:46:29;17.40;99.90
21823;DHT22;11074;48.596;9.238;2023-05-10T15:48:57;17.40;99.90
21823;DHT22;11074;48.596;9.238;2023-05-10T15:51:24;17.50;99.90
21823;DHT22;11074;48.596;9.238;2023-05-10T15:53:50;17.50;99.90
21823;DHT22;11074;48.596;9.238;2023-05-10T15:56:16;17.40;99.90
21823;DHT22;11074;48.596;9.238;2023-05-10T15:58:42;17.40;99.90
21823;DHT22;11074;48.596;9.238;2023-05-10T16:01:09;17.30;99.90
21823;DHT22;11074;48.596;9.238;2023-05-10T16:03:36;17.30;99.90
21823;DHT22;11074;48.596;9.238;2023-05-10T16:06:02;17.20;99.90
21823;DHT22;11074;48.596;9.238;2023-05-10T16:08:28;17.10;99.90
21823;DHT22;11074;48.596;9.238;2023-05-10T16:10:58;17.00;99.90
21823;DHT22;11074;48.596;9.238;2023-05-10T16:13:24;17.00;99.90
21823;DHT22;11074;48.596;9.238;2023-05-10T16:15:50;16.80;99.90
21823;DHT22;11074;48.596;9.238;2023-05-10T16:18:16;16.70;99.90
21823;DHT22;11074;48.596;9.238;2023-05-10T16:20:43;16.60;99.90
21823;DHT22;11074;48.596;9.238;2023-05-10T16:23:09;16.50;99.90
21823;DHT22;11074;48.596;9.238;2023-05-10T16:25:35;16.30;99.90
21823;DHT22;11074;48.596;9.238;2023-05-10T16:28:01;16.30;99.90